Somerton, Arizona
Current Conditions -  °F | °C
As of 11:57 AM on Thursday 30 Oct 2014 (Local Time) from KNYL Reporting Station
Broken Clouds Broken Clouds  
Wind Chill: 88°   Ceiling: 30000
Heat Index: 88°   Visibility: 10mi
Dew Point: 35°   Wind: 9mph
Humidity: 15%   Direction: 30°NNE
Pressure: 29.94"   Gusts: NA
Location:  32.6°N, 114.71°W
Report Text: KNYL 301857Z 03008KT 10SM FEW120 SCT200 BKN300 31/02 A2994 RMK AO2 SLP136 T03110017
Loading
Personal Weather Stations






























Interactive Weather Map
Tropical Storm Tracking
New forecast layout! Learn more

10-Day Weather Forecast

Advertisements
Track Severe Weather on mobile